createdAt,value
2022-12-25T21:48:00.155Z,6.53
2022-12-25T21:50:47.892Z,8.50
2022-12-25T21:53:18.862Z,6.15
2022-12-25T21:56:04.518Z,7.47
2022-12-25T21:58:31.482Z,6.63
2022-12-25T22:01:03.360Z,6.13
2022-12-25T22:03:30.488Z,5.80
2022-12-25T22:06:21.424Z,6.97
2022-12-25T22:08:48.477Z,7.25
2022-12-25T22:11:33.630Z,8.02
2022-12-25T22:14:19.118Z,5.88
2022-12-25T22:17:36.175Z,5.30
2022-12-25T22:20:03.919Z,7.85
2022-12-25T22:22:31.186Z,7.03
2022-12-25T22:25:00.306Z,5.22
2022-12-25T22:27:32.439Z,5.32
2022-12-25T22:29:59.579Z,5.05
2022-12-25T22:32:27.109Z,7.00
2022-12-25T22:34:54.398Z,8.70
2022-12-25T22:37:21.272Z,4.82
2022-12-25T22:39:47.992Z,4.82
2022-12-25T22:42:15.635Z,3.40
2022-12-25T22:44:42.399Z,3.40
2022-12-25T22:47:09.613Z,4.07
2022-12-25T22:49:36.329Z,3.65
2022-12-25T22:52:03.498Z,3.97
2022-12-25T22:54:31.576Z,3.80
2022-12-25T22:56:59.281Z,3.03
2022-12-25T22:59:26.399Z,3.58
2022-12-25T23:01:53.447Z,3.63
2022-12-25T23:04:20.513Z,3.55
2022-12-25T23:06:47.211Z,2.63
2022-12-25T23:09:22.143Z,3.63
2022-12-25T23:11:51.243Z,3.28
2022-12-25T23:14:36.298Z,2.15
2022-12-25T23:17:03.293Z,2.72
2022-12-25T23:19:48.653Z,3.75
2022-12-25T23:22:34.443Z,2.83
2022-12-25T23:25:19.882Z,1.67
2022-12-25T23:27:46.816Z,3.35
2022-12-25T23:30:16.225Z,2.50
2022-12-25T23:32:43.927Z,1.98
2022-12-25T23:35:11.703Z,2.30
2022-12-25T23:37:38.368Z,4.88
2022-12-25T23:40:05.712Z,2.40
2022-12-25T23:42:32.373Z,1.85
2022-12-25T23:44:58.992Z,4.80
2022-12-25T23:47:25.696Z,1.75
2022-12-25T23:49:52.345Z,3.50
2022-12-25T23:52:19.045Z,4.93
2022-12-25T23:54:45.779Z,4.25
2022-12-25T23:57:12.638Z,1.60
2022-12-25T23:59:39.454Z,2.40
